WZZ6931 LROP-EDDS
Flight info
| Callsign | WZZ6931 |
|---|---|
| Flight time | N/A |
| Altitude | 34000 |
| Route | SOKRU1K/08L SOKRU DCT OXDOC DCT IRLOX DCT EMPOS DCT EVRIK DCT BKS DCT BALUX DCT ZOLKU DCT TEKNO DCT ABETI DCT BARUG DCT MATIG DCT TITIG L173 MAH/N0396F240 L173 DODIL T127 TEKSI TEKSI5A |
| Aircraft | A321/M-SDE3FGHIRWY/LB1 |
Departure
| Time | 2026-05-04 18:03 |
|---|---|
| Airport | Bucharest Henri Coandă International Airport (LROP) |
Arrival
| Time | N/A |
|---|---|
| Airport | Stuttgart Airport (EDDS) |
| Time | Latitude | Longitude | Altitude | Speed | Heading |
|---|---|---|---|---|---|
| 2026-05-04 17:20 | 44.56857 | 26.08065 | 313 ft | 0 kts | 353° |
| 2026-05-04 17:56 | 44.56872 | 26.08062 | 313 ft | 5 kts | 353° |
| 2026-05-04 17:56 | 44.56922 | 26.08062 | 314 ft | 8 kts | 27° |
| 2026-05-04 17:56 | 44.56939 | 26.08153 | 314 ft | 13 kts | 82° |
| 2026-05-04 17:57 | 44.56949 | 26.08288 | 314 ft | 15 kts | 85° |
| 2026-05-04 17:57 | 44.56997 | 26.08388 | 315 ft | 13 kts | 4° |
| 2026-05-04 17:57 | 44.57087 | 26.08376 | 316 ft | 13 kts | 354° |
| 2026-05-04 17:57 | 44.57173 | 26.08364 | 318 ft | 12 kts | 354° |
| 2026-05-04 17:58 | 44.57227 | 26.08417 | 318 ft | 11 kts | 79° |
| 2026-05-04 17:58 | 44.57261 | 26.08495 | 319 ft | 10 kts | 11° |
| 2026-05-04 17:58 | 44.57329 | 26.08490 | 319 ft | 10 kts | 354° |
| 2026-05-04 17:58 | 44.57398 | 26.08480 | 320 ft | 10 kts | 354° |
| 2026-05-04 17:59 | 44.57468 | 26.08470 | 320 ft | 10 kts | 354° |
| 2026-05-04 17:59 | 44.57519 | 26.08462 | 321 ft | 0 kts | 354° |
| 2026-05-04 17:59 | 44.57526 | 26.08461 | 319 ft | 3 kts | 354° |
| 2026-05-04 18:00 | 44.57561 | 26.08456 | 320 ft | 7 kts | 353° |
| 2026-05-04 18:00 | 44.57619 | 26.08447 | 323 ft | 10 kts | 354° |
| 2026-05-04 18:00 | 44.57666 | 26.08496 | 323 ft | 10 kts | 79° |
| 2026-05-04 18:00 | 44.57669 | 26.08521 | 323 ft | 0 kts | 83° |
| 2026-05-04 18:02 | 44.57673 | 26.08570 | 323 ft | 26 kts | 84° |
| 2026-05-04 18:02 | 44.57717 | 26.09170 | 317 ft | 96 kts | 84° |
| 2026-05-04 18:03 | 44.57807 | 26.10378 | 319 ft | 150 kts | 83° |
| 2026-05-04 18:03 | 44.57921 | 26.11992 | 512 ft | 174 kts | 84° |
| 2026-05-04 18:03 | 44.58042 | 26.13607 | 1183 ft | 165 kts | 84° |
| 2026-05-04 18:03 | 44.58166 | 26.15219 | 1612 ft | 168 kts | 83° |
| 2026-05-04 18:04 | 44.58292 | 26.16866 | 2070 ft | 173 kts | 82° |
| 2026-05-04 18:04 | 44.58430 | 26.18649 | 2275 ft | 195 kts | 82° |
| 2026-05-04 18:04 | 44.59929 | 26.21892 | 2553 ft | 231 kts | 15° |
| 2026-05-04 18:05 | 44.61571 | 26.21797 | 2794 ft | 250 kts | 336° |
| 2026-05-04 18:05 | 44.63016 | 26.20391 | 3379 ft | 257 kts | 319° |
| 2026-05-04 18:05 | 44.64459 | 26.18911 | 4061 ft | 258 kts | 339° |
| 2026-05-04 18:05 | 44.66185 | 26.18237 | 4766 ft | 259 kts | 354° |
| 2026-05-04 18:06 | 44.69776 | 26.17726 | 6311 ft | 258 kts | 356° |
| 2026-05-04 18:06 | 44.71555 | 26.17457 | 7104 ft | 256 kts | 356° |
| 2026-05-04 18:06 | 44.73333 | 26.17186 | 7832 ft | 257 kts | 356° |
| 2026-05-04 18:07 | 44.75103 | 26.16761 | 8516 ft | 262 kts | 346° |
| 2026-05-04 18:07 | 44.76732 | 26.15601 | 9184 ft | 272 kts | 328° |
| 2026-05-04 18:07 | 44.78090 | 26.13625 | 9880 ft | 285 kts | 310° |
| 2026-05-04 18:07 | 44.79138 | 26.11257 | 10325 ft | 297 kts | 308° |
| 2026-05-04 18:08 | 44.80265 | 26.08701 | 10456 ft | 318 kts | 308° |
| 2026-05-04 18:08 | 44.81473 | 26.05969 | 10589 ft | 338 kts | 307° |
| 2026-05-04 18:08 | 44.82730 | 26.03116 | 11004 ft | 347 kts | 307° |
| 2026-05-04 18:08 | 44.84007 | 26.00207 | 11572 ft | 351 kts | 307° |
| 2026-05-04 18:09 | 44.86489 | 25.94197 | 12707 ft | 362 kts | 298° |
| 2026-05-04 18:09 | 44.88031 | 25.87283 | 13846 ft | 375 kts | 291° |
| 2026-05-04 18:10 | 44.88770 | 25.83739 | 14350 ft | 379 kts | 291° |
| 2026-05-04 18:10 | 44.89512 | 25.80212 | 14860 ft | 382 kts | 291° |
| 2026-05-04 18:10 | 44.90268 | 25.76614 | 15396 ft | 385 kts | 290° |
| 2026-05-04 18:10 | 44.91031 | 25.72972 | 15920 ft | 388 kts | 290° |
| 2026-05-04 18:11 | 44.91796 | 25.69305 | 16455 ft | 391 kts | 290° |
| 2026-05-04 18:11 | 44.92566 | 25.65608 | 16984 ft | 395 kts | 290° |
| 2026-05-04 18:11 | 44.93341 | 25.61876 | 17515 ft | 398 kts | 290° |
| 2026-05-04 18:11 | 44.94123 | 25.58111 | 18009 ft | 401 kts | 289° |
| 2026-05-04 18:12 | 44.94906 | 25.54327 | 18503 ft | 404 kts | 289° |
| 2026-05-04 18:12 | 44.95693 | 25.50506 | 19000 ft | 406 kts | 289° |
| 2026-05-04 18:12 | 44.96483 | 25.46674 | 19530 ft | 406 kts | 289° |
| 2026-05-04 18:12 | 44.97262 | 25.42897 | 20059 ft | 406 kts | 289° |
| 2026-05-04 18:13 | 44.98049 | 25.39066 | 20603 ft | 406 kts | 288° |
| 2026-05-04 18:13 | 44.98836 | 25.35229 | 21152 ft | 407 kts | 288° |
| 2026-05-04 18:13 | 45.00549 | 25.27623 | 22201 ft | 406 kts | 291° |
| 2026-05-04 18:14 | 45.01527 | 25.23882 | 22690 ft | 407 kts | 292° |
| 2026-05-04 18:14 | 45.02648 | 25.20214 | 23141 ft | 406 kts | 300° |
| 2026-05-04 18:14 | 45.04190 | 25.16879 | 23597 ft | 406 kts | 309° |
| 2026-05-04 18:15 | 45.07905 | 25.10842 | 24301 ft | 408 kts | 311° |
| 2026-05-04 18:15 | 45.11548 | 25.04627 | 24953 ft | 413 kts | 304° |
| 2026-05-04 18:15 | 45.13122 | 25.01216 | 25279 ft | 415 kts | 303° |
| 2026-05-04 18:16 | 45.14673 | 24.97816 | 25608 ft | 417 kts | 303° |
| 2026-05-04 18:16 | 45.16244 | 24.94352 | 25918 ft | 420 kts | 303° |
| 2026-05-04 18:16 | 45.17821 | 24.90862 | 26227 ft | 422 kts | 303° |
| 2026-05-04 18:17 | 45.20999 | 24.83818 | 26875 ft | 425 kts | 302° |
| 2026-05-04 18:17 | 45.22593 | 24.80286 | 27186 ft | 427 kts | 302° |
| 2026-05-04 18:17 | 45.25808 | 24.73146 | 27819 ft | 431 kts | 302° |
| 2026-05-04 18:18 | 45.27421 | 24.69555 | 28125 ft | 432 kts | 301° |
| 2026-05-04 18:18 | 45.29034 | 24.65954 | 28448 ft | 434 kts | 302° |
| 2026-05-04 18:18 | 45.30657 | 24.62322 | 28716 ft | 436 kts | 301° |
| 2026-05-04 18:18 | 45.32260 | 24.58730 | 29008 ft | 437 kts | 301° |
| 2026-05-04 18:19 | 45.35533 | 24.51405 | 29625 ft | 441 kts | 301° |
| 2026-05-04 18:19 | 45.37179 | 24.47724 | 29918 ft | 442 kts | 301° |
| 2026-05-04 18:19 | 45.38833 | 24.44022 | 30204 ft | 444 kts | 301° |
| 2026-05-04 18:20 | 45.40484 | 24.40320 | 30562 ft | 443 kts | 301° |
| 2026-05-04 18:20 | 45.42128 | 24.36620 | 30906 ft | 442 kts | 303° |
| 2026-05-04 18:20 | 45.43772 | 24.32913 | 31138 ft | 444 kts | 303° |
| 2026-05-04 18:20 | 45.45422 | 24.29183 | 31380 ft | 445 kts | 303° |
| 2026-05-04 18:21 | 45.47071 | 24.25459 | 31703 ft | 445 kts | 303° |
| 2026-05-04 18:21 | 45.48719 | 24.21741 | 32024 ft | 444 kts | 303° |
| 2026-05-04 18:21 | 45.50348 | 24.18059 | 32315 ft | 444 kts | 304° |
| 2026-05-04 18:21 | 45.51991 | 24.14338 | 32671 ft | 443 kts | 304° |
| 2026-05-04 18:22 | 45.53648 | 24.10575 | 32983 ft | 442 kts | 303° |
| 2026-05-04 18:22 | 45.55258 | 24.06915 | 33269 ft | 442 kts | 304° |
| 2026-05-04 18:22 | 45.56892 | 24.03196 | 33542 ft | 442 kts | 304° |
| 2026-05-04 18:22 | 45.58523 | 23.99471 | 33832 ft | 442 kts | 303° |
| 2026-05-04 18:23 | 45.60151 | 23.95746 | 34063 ft | 442 kts | 303° |
| 2026-05-04 18:23 | 45.61771 | 23.92035 | 34109 ft | 440 kts | 303° |
| 2026-05-04 18:23 | 45.64998 | 23.84640 | 34108 ft | 438 kts | 303° |
| 2026-05-04 18:24 | 45.68218 | 23.77236 | 34111 ft | 438 kts | 303° |
| 2026-05-04 18:24 | 45.71425 | 23.69848 | 34095 ft | 438 kts | 304° |
| 2026-05-04 18:25 | 45.74622 | 23.62479 | 34104 ft | 438 kts | 304° |
| 2026-05-04 18:25 | 45.77828 | 23.55063 | 34107 ft | 438 kts | 303° |
| 2026-05-04 18:26 | 45.81033 | 23.47623 | 34112 ft | 439 kts | 303° |
| 2026-05-04 18:26 | 45.84230 | 23.40169 | 34111 ft | 439 kts | 304° |
| 2026-05-04 18:27 | 45.87426 | 23.32711 | 34114 ft | 438 kts | 304° |
| 2026-05-04 18:27 | 45.90607 | 23.25260 | 34111 ft | 438 kts | 304° |
| 2026-05-04 18:28 | 45.93779 | 23.17806 | 34116 ft | 437 kts | 304° |
| 2026-05-04 18:28 | 45.96948 | 23.10348 | 34104 ft | 437 kts | 304° |
| 2026-05-04 18:29 | 46.00090 | 23.02950 | 34106 ft | 437 kts | 304° |
| 2026-05-04 18:29 | 46.03241 | 22.95495 | 34107 ft | 436 kts | 304° |
| 2026-05-04 18:30 | 46.07964 | 22.84294 | 34112 ft | 436 kts | 304° |
| 2026-05-04 18:31 | 46.11101 | 22.76808 | 34106 ft | 436 kts | 303° |
| 2026-05-04 18:31 | 46.14226 | 22.69331 | 34117 ft | 436 kts | 304° |
| 2026-05-04 18:32 | 46.17355 | 22.61846 | 34112 ft | 436 kts | 304° |
| 2026-05-04 18:32 | 46.20478 | 22.54356 | 34110 ft | 435 kts | 303° |
| 2026-05-04 18:33 | 46.23592 | 22.46862 | 34102 ft | 435 kts | 303° |
| 2026-05-04 18:33 | 46.26678 | 22.39398 | 34105 ft | 435 kts | 303° |
| 2026-05-04 18:34 | 46.29777 | 22.31890 | 34110 ft | 435 kts | 303° |
| 2026-05-04 18:34 | 46.32869 | 22.24396 | 34103 ft | 434 kts | 303° |
| 2026-05-04 18:35 | 46.35961 | 22.16878 | 34081 ft | 434 kts | 304° |
| 2026-05-04 18:35 | 46.39039 | 22.09377 | 34093 ft | 434 kts | 304° |
| 2026-05-04 18:36 | 46.42116 | 22.01852 | 34093 ft | 434 kts | 304° |
| 2026-05-04 18:36 | 46.45183 | 21.94321 | 34097 ft | 433 kts | 303° |
| 2026-05-04 18:37 | 46.48238 | 21.86790 | 34093 ft | 433 kts | 303° |
| 2026-05-04 18:37 | 46.51276 | 21.79306 | 34091 ft | 433 kts | 304° |
| 2026-05-04 18:38 | 46.54326 | 21.71764 | 34097 ft | 433 kts | 304° |
| 2026-05-04 18:38 | 46.57366 | 21.64219 | 34092 ft | 433 kts | 304° |
| 2026-05-04 18:39 | 46.60404 | 21.56668 | 34098 ft | 433 kts | 304° |
| 2026-05-04 18:39 | 46.63426 | 21.49108 | 34083 ft | 433 kts | 303° |
| 2026-05-04 18:40 | 46.66448 | 21.41534 | 34088 ft | 432 kts | 303° |
| 2026-05-04 18:40 | 46.69452 | 21.34013 | 34087 ft | 432 kts | 303° |
| 2026-05-04 18:41 | 46.72470 | 21.26431 | 34092 ft | 433 kts | 303° |
| 2026-05-04 18:41 | 46.75484 | 21.18838 | 34080 ft | 432 kts | 303° |
| 2026-05-04 18:42 | 46.78486 | 21.11241 | 34080 ft | 432 kts | 303° |
| 2026-05-04 18:42 | 46.81163 | 21.03366 | 34084 ft | 435 kts | 296° |
| 2026-05-04 18:43 | 46.83502 | 20.95223 | 34081 ft | 435 kts | 296° |
| 2026-05-04 18:43 | 46.85837 | 20.87144 | 34082 ft | 435 kts | 296° |
| 2026-05-04 18:44 | 46.88176 | 20.78996 | 34072 ft | 435 kts | 295° |
| 2026-05-04 18:44 | 46.90507 | 20.70829 | 34078 ft | 435 kts | 295° |
| 2026-05-04 18:45 | 46.92835 | 20.62650 | 34087 ft | 435 kts | 295° |
| 2026-05-04 18:45 | 46.95139 | 20.54533 | 34084 ft | 435 kts | 295° |
| 2026-05-04 18:46 | 46.97452 | 20.46360 | 34078 ft | 434 kts | 295° |
| 2026-05-04 18:46 | 46.99755 | 20.38190 | 34074 ft | 434 kts | 295° |
| 2026-05-04 18:47 | 47.02054 | 20.30009 | 34072 ft | 434 kts | 295° |
| 2026-05-04 18:47 | 47.04332 | 20.21860 | 34071 ft | 435 kts | 295° |
| 2026-05-04 18:48 | 47.06621 | 20.13656 | 34071 ft | 435 kts | 295° |
| 2026-05-04 18:48 | 47.08897 | 20.05470 | 34059 ft | 435 kts | 294° |
| 2026-05-04 18:49 | 47.11173 | 19.97250 | 34060 ft | 435 kts | 294° |
| 2026-05-04 18:49 | 47.13450 | 19.89021 | 34061 ft | 435 kts | 294° |
| 2026-05-04 18:50 | 47.15719 | 19.80780 | 34069 ft | 435 kts | 294° |
| 2026-05-04 18:50 | 47.17979 | 19.72539 | 34060 ft | 435 kts | 293° |
| 2026-05-04 18:51 | 47.20234 | 19.64276 | 34066 ft | 435 kts | 293° |
| 2026-05-04 18:51 | 47.22475 | 19.56074 | 34068 ft | 435 kts | 293° |
| 2026-05-04 18:52 | 47.24719 | 19.47787 | 34072 ft | 436 kts | 293° |
| 2026-05-04 18:52 | 47.26959 | 19.39498 | 34075 ft | 436 kts | 293° |
| 2026-05-04 18:53 | 47.29193 | 19.31217 | 34082 ft | 435 kts | 292° |
| 2026-05-04 18:53 | 47.31412 | 19.22939 | 34077 ft | 434 kts | 292° |
| 2026-05-04 18:54 | 47.33609 | 19.14720 | 34072 ft | 433 kts | 292° |
| 2026-05-04 18:54 | 47.35232 | 19.06177 | 34074 ft | 433 kts | 285° |
| 2026-05-04 18:55 | 47.36684 | 18.97560 | 34073 ft | 433 kts | 285° |
| 2026-05-04 18:55 | 47.38872 | 18.84638 | 34070 ft | 432 kts | 285° |
| 2026-05-04 18:56 | 47.40313 | 18.76032 | 34074 ft | 432 kts | 284° |
| 2026-05-04 18:56 | 47.41738 | 18.67418 | 34074 ft | 432 kts | 284° |
| 2026-05-04 18:57 | 47.43164 | 18.58808 | 34063 ft | 431 kts | 285° |
| 2026-05-04 18:57 | 47.44572 | 18.50253 | 34058 ft | 431 kts | 285° |